Airport Name : Erfurt

Other Name : Erfurt

ICAO : EDDE

IATA : ERF

FAA :

Latitude : 50.979811

Longitude : 10.958106

Country : Germany

Local Date and Time : 17 Oct 2021 07:38

 

TAF (Terminal Aerodrome Forecast)

TAF EDDE 170500Z 1706/1806 22007KT 9999 FEW045 PROB30 TEMPO 1706/1707 3000 BCFG BECMG 1711/1714 30005KT BECMG 1717/1720 22005KT

 

METAR (METeorological Aerodrome Report)

EDDE 170520Z 22007KT 9999 FEW048 03/03 Q1020 NOSIG

EDDE 170450Z 22006KT 9999 FEW048 03/02 Q1020 NOSIG

EDDE 170420Z 21006KT 9999 FEW040 04/03 Q1020 NOSIG

EDDE 170350Z 22007KT 9999 SCT040 04/03 Q1020 NOSIG

EDDE 170320Z 21006KT 9999 OVC041 05/04 Q1020

EDDE 170250Z 21006KT 9999 OVC041 05/04 Q1020

EDDE 170220Z 21006KT 9999 OVC041 05/04 Q1020

EDDE 170150Z 20007KT 9999 OVC041 05/04 Q1020

To Charter a Jet Click here.